Goldfield, Nevada Weather observations

Data are for observation ending at time listed.
 Day   Time    Ave.   Ave.  Ave.  Vector   Max.   Stn.    Total    Solar   Ave.  
  of    of     Air    Rel.  Wind   Wind    Wind   Baro.  Precip.   Rad.    Soil  
Year   Day     Temp.  Hum.  Speed  Dir.    Gust   Pres.                    Temp. 
2015   (PST)    F      %     mph   deg.    mph     mb.     in.     W/m2     F   
------------------------------------------------------------------------------
  27   20:40   38.2    98    2.8   297      4.6   833.9    0.00       0    42.3
  27   20:50   38.4    98    2.6   322      4.0   834.0    0.00       0    42.3
  27   21:00   38.3    97    1.8   335      3.3   834.0    0.00       0    42.2
  27   21:10   38.3    97    1.4   348      2.6   834.1    0.00       0    42.2
  27   21:20   38.3    97    0.7   354      1.9   834.1    0.00       0    42.0
  27   21:30   38.4    97    0.1   330      0.8   834.1    0.01       0    42.1
  27   21:40   38.5    97    0.0     0      0.0   834.1    0.00       0    42.0
  27   21:50   38.7    97    0.0     0      0.0   834.2    0.00       0    42.0
  27   22:00   38.8    96    1.1    66      2.0   834.2    0.00       0    42.0
  27   22:10   38.8    94    2.2   110      3.1   834.3    0.00       0    41.9
  27   22:20   38.6    94    2.3   119      3.4   834.4    0.00       0    41.8
  27   22:30   38.4    94    1.8   112      2.8   834.4    0.00       0    41.8
  27   22:40   38.3    94    1.9   107      2.7   834.4    0.00       0    41.8
  27   22:50   38.0    93    2.2   134      3.7   834.4    0.00       0    41.7
  27   23:00   37.6    92    2.0    85      2.7   834.3    0.00       0    41.6
  27   23:10   36.7    94    2.0   132      3.9   834.4    0.00       0    41.5
  27   23:20   36.9    92    2.6   111      3.7   834.4    0.00       0    41.7
  27   23:30   36.2    92    2.6   117      3.7   834.4    0.00       0    41.5
  27   23:40   36.0    92    0.6    92      1.8   834.2    0.00       1    41.4
  27   23:50   35.5    92    3.3   114      4.9   834.3    0.00       0    41.3
  28    0:00   36.6    89    3.8   150      5.3   834.2    0.00       0    41.2
  28    0:10   36.7    88    2.5   142      4.8   834.2    0.00       0    41.0
  28    0:20   35.7    89    0.5   288      1.5   834.1    0.00       0    41.1
  28    0:30   34.9    91    0.2   335      1.2   834.1    0.00       0    40.9
  28    0:40   34.3    92    0.3     9      1.4   833.9    0.00       0    40.9
  28    0:50   33.7    94    1.7   179      3.5   833.8    0.00       0    40.7
  28    1:00   34.3    94    1.6   232      2.6   833.7    0.00       0    40.8
  28    1:10   33.4    93    1.5    74      2.6   833.6    0.00       0    40.5
  28    1:20   33.3    95    1.5   120      2.5   833.6    0.00       0    40.4
  28    1:30   34.0    95    1.3   206      3.9   833.7    0.00       0    40.3
  28    1:40   34.5    92    2.2   239      3.9   833.7    0.00       1    40.2
  28    1:50   34.9    90    1.1   264      3.3   833.6    0.00       0    40.0
  28    2:00   34.1    90    0.3    66      1.8   833.6    0.00       0    40.0
  28    2:10   33.6    92    0.4   124      1.9   833.5    0.00       0    40.0
  28    2:20   34.0    93    0.8   182      2.0   833.6    0.00       0    39.8
  28    2:30   34.7    93    1.5   223      3.1   833.6    0.00       0    39.6
  28    2:40   35.8    88    2.1   332      3.9   833.7    0.00       0    39.5
  28    2:50   35.7    87    1.2   342      2.9   833.7    0.00       0    39.5
  28    3:00   34.6    89    1.0    48      2.0   833.7    0.00       0    39.5
  28    3:10   34.5    90    1.1    97      2.4   833.8    0.00       0    39.2
  28    3:20   34.5    89    1.8    82      3.3   833.9    0.00       0    38.9
  28    3:30   34.1    90    1.9    43      3.6   834.1    0.00       0    39.0
  28    3:40   34.0    93    1.2   152      3.6   834.3    0.00       0    39.1
  28    3:50   34.1    96    2.0   154      5.0   834.5    0.00       0    38.9
  28    4:00   33.2    96    3.2    93      4.4   834.5    0.00       0    38.9
  28    4:10   32.3    98    1.8    76      2.9   834.5    0.00       0    38.8
  28    4:20   32.2    99    0.8   107      2.9   834.6    0.00       0    38.7
  28    4:30   32.7   100    2.4   151      3.1   834.5    0.00       0    38.8
  28    4:40   33.0   100    2.6   205      3.4   834.4    0.00       0    38.6
  28    4:50   32.9   100    2.3   231      3.1   834.4    0.00       0    38.5
  28    5:00   32.8   100    2.8   203      3.7   834.4    0.00       0    38.5
  28    5:10   32.8   100    2.5   200      3.4   834.3    0.00       0    38.5
  28    5:20   32.0   100    1.7    43      4.3   834.4    0.00       0    38.5
  28    5:30   31.7   100    1.4   124      2.9   834.5    0.00       0    38.6
  28    5:40   31.8   100    1.4   106      3.1   834.6    0.00       0    38.3
  28    5:50   31.9   100    1.0    77      2.2   834.7    0.00       0    38.3
  28    6:00   32.1   100    0.1   112      1.7   834.7    0.00       0    38.2
  28    6:10   31.0   100    1.1    51      3.5   834.8    0.00       0    38.1
  28    6:20   31.0   100    1.4   143      2.3   834.9    0.00       0    38.1
  28    6:30   31.9   100    0.9   163      2.6   834.9    0.00       0    38.1
  28    6:40   31.8   100    0.7   192      2.5   835.0    0.00       0    38.0
  28    6:50   31.7   100    1.5   251      2.6   835.0    0.00       0    38.0
  28    7:00   31.5   100    0.3   304      2.0   835.0    0.00       0    38.0
  28    7:10   31.2   100    0.7   190      2.3   835.1    0.00       6    37.8
  28    7:20   31.4   100    2.0   151      2.8   835.2    0.00       8    37.8
  28    7:30   31.8   100    1.8   152      2.9   835.2    0.00      13    37.7
  28    7:40   32.1   100    0.8   163      2.1   835.3    0.00      72    37.6
  28    7:50   32.1   100    1.5   208      2.3   835.3    0.00     164    37.6
  28    8:00   33.1   100    1.4   279      2.9   835.2    0.00     186    37.7
  28    8:10   33.4   100    2.4   336      3.8   835.2    0.00     205    37.4
  28    8:20   33.4   100    0.7     4      2.4   835.4    0.00     234    37.4
  28    8:30   34.9   100    0.8    15      3.4   835.3    0.00     246    37.4
  28    8:40   37.7    99    1.1     3      3.1   835.3    0.00     277    37.4
  28    8:50   39.5    94    1.6   353      3.4   835.3    0.00     309    37.4
  28    9:00   39.8    86    1.9   339      3.7   835.4    0.00     334    37.3
  28    9:10   39.8    84    3.5   347      5.7   835.4    0.00     355    37.5
  28    9:20   39.7    84    3.6   336      6.1   835.5    0.00     375    37.4
  28    9:30   39.9    84    3.6   338      5.6   835.7    0.00     246    37.4
  28    9:40   40.1    84    5.3   327      7.3   835.7    0.00     249    37.4
  28    9:50   39.7    85    6.5   330     10.6   835.7    0.00     442    37.4
  28   10:00   39.7    86    5.7   337      8.7   835.8    0.00     462    37.5
  28   10:10   40.8    83    6.1   340      9.1   835.8    0.00     480    37.5
  28   10:20   41.3    81    6.1   342      9.9   835.7    0.00     497    37.7
  28   10:30   42.1    80    6.2   339      9.6   835.7    0.00     518    37.8
  28   10:40   42.8    79    6.3   332     10.1   835.6    0.00     530    37.9
  28   10:50   43.3    77    6.4   339     10.8   835.4    0.00     542    38.0
  28   11:00   43.9    75    6.3   342     11.7   835.4    0.00     556    38.1
  28   11:10   44.8    72    6.5   338      9.9   835.2    0.00     554    38.2
  28   11:20   45.9    65    8.6   318     12.6   835.0    0.00     548    38.2
  28   11:30   46.3    62    8.2   314     12.9   834.8    0.00     557    38.3
  28   11:40   47.3    58    7.6   302     12.9   834.7    0.00     569    38.3
  28   11:50   47.9    56    8.2   308     12.5   834.6    0.00     550    38.5
  28   12:00   48.0    54    7.7   312     12.9   834.6    0.00     527    38.5
  28   12:10   47.2    55    9.4   325     14.0   834.4    0.00     556    38.5
  28   12:20   47.2    56    9.3   325     14.2   834.2    0.00     555    38.7
  28   12:30   46.9    55    8.8   323     14.2   834.2    0.00     551    38.8
  28   12:40   46.9    54    8.9   325     14.2   834.1    0.00     556    38.9
  28   12:50   47.2    53    9.1   312     14.5   834.1    0.00     522    39.0
  28   13:00   47.5    54    7.6   323     12.7   833.9    0.00     543    39.2
  28   13:10   47.6    54    8.1   319     11.3   833.7    0.00     479    39.3
  28   13:20   47.8    56    7.0   319     11.8   833.7    0.00     414    39.5
  28   13:30   47.8    56    8.4   322     14.2   833.6    0.00     400    39.7
  28   13:40   47.9    56    8.5   322     13.6   833.5    0.00     355    39.9
  28   13:50   48.0    55    9.6   316     15.0   833.4    0.00     342    40.1
  28   14:00   47.9    55    8.9   319     13.8   833.3    0.00     312    40.3
  28   14:10   48.0    54    8.9   316     12.2   833.3    0.00     294    40.4
  28   14:20   48.0    52    9.0   309     13.4   833.3    0.00     309    40.5
  28   14:30   48.6    50    7.3   311     10.2   833.3    0.00     370    40.6
  28   14:40   49.0    49    7.4   311     17.0   833.3    0.00     320    40.9
  28   14:50   48.7    50    6.7   310     11.3   833.4    0.00     274    40.9
  28   15:00   49.0    48    6.7   314     10.3   833.4    0.00     267    41.1
  28   15:10   49.0    47    5.0   311      9.2   833.5    0.00     234    41.2
  28   15:20   49.4    48    4.5   330      7.1   833.5    0.00     295    41.4
  28   15:30   49.3    48    4.5   325      8.7   833.4    0.00     205    41.4
  28   15:40   48.8    49    4.5   328      7.1   833.4    0.00     170    41.5
  28   15:50   49.0    49    4.9   304      9.6   833.4    0.00     154    41.6
  28   16:00   49.1    50    3.9   313      6.1   833.4    0.00     112    41.7
  28   16:10   48.5    50    4.9   324      8.1   833.4    0.00      94    41.8
  28   16:20   48.1    52    3.9   311      6.1   833.4    0.00      62    41.8
  28   16:30   47.8    52    3.7   308      6.9   833.3    0.00      55    41.9
  28   16:40   47.6    53    3.6   317      5.6   833.3    0.00      33    42.0
  28   16:50   47.2    55    3.7   324      5.3   833.4    0.00      26    42.0
  28   17:00   46.8    56    3.3   321      4.7   833.5    0.00      14    42.0
  28   17:10   46.7    58    2.0   318      4.2   833.5    0.00       4    42.0
  28   17:20   46.0    62    0.7   250      1.5   833.5    0.00       3    42.1
  28   17:30   45.4    64    1.6   271      2.6   833.5    0.00       0    42.0
  28   17:40   45.0    65    2.0   295      3.1   833.6    0.00       0    42.0
  28   17:50   44.8    65    2.7   303      4.2   833.7    0.00       0    42.0
  28   18:00   44.6    66    1.8   281      2.7   833.6    0.00       0    41.9
  28   18:10   44.1    67    0.9   285      2.3   833.7    0.00       0    41.9
  28   18:20   43.8    67    0.6   266      1.6   833.7    0.00       0    41.9
  28   18:30   43.3    68    0.5   106      1.9   833.7    0.00       0    42.0
  28   18:40   42.9    70    1.8    96      3.4   833.7    0.00       0    41.9
  28   18:50   41.9    73    2.8   112      4.2   833.8    0.00       0    41.9
  28   19:00   41.2    73    2.9   116      4.5   833.8    0.00       0    41.8
  28   19:10   40.8    73    2.5   122      3.3   833.9    0.00       0    41.9
  28   19:20   40.7    74    2.3   120      3.3   834.0    0.00       0    41.8
  28   19:30   40.1    76    2.3   154      3.0   834.1    0.00       0    41.6
  28   19:40   40.7    72    1.5   191      2.0   834.1    0.00       0    41.6
  28   19:50   41.1    72    2.0    95      3.2   834.1    0.00       0    41.5
  28   20:00   40.7    73    3.6   122      4.9   834.2    0.00       0    41.3
  28   20:10   41.5    70    2.3   131      4.2   834.1    0.00       0    41.5
  28   20:20   40.7    74    1.3   130      2.1   834.2    0.00       0    41.5
  28   20:30   39.8    76    1.7   142      2.2   834.2    0.00       0    41.3

Return to Goldfield, Nevada graphs page.


Western Regional Climate Center,wrcc@dri.edu